Time;durP1;ratioP1;P1;durP2;ratioP2;P2;SDS_P1;SDS_P2;PMS_P1;PMS_P2;Temp;Humidity;BMP_temperature;BMP_pressure;BME280_temperature;BME280_humidity;BME280_pressure;Samples;Min_cycle;Max_cycle;Signal;HPM_P1;HPM_P2
2021/12/08 00:01:25;;;;;;;275.10;148.40;;;-0.20;99.90;;;;;;5038657;28;20531;-80
2021/12/08 00:03:53;;;;;;;284.55;156.00;;;-0.20;1.00;;;;;;5056966;28;20048;-80
2021/12/08 00:06:21;;;;;;;268.10;152.95;;;-0.20;1.00;;;;;;5055899;28;20049;-80
2021/12/08 00:09:01;;;;;;;289.95;158.90;;;-0.30;1.00;;;;;;5044360;28;20436;-83
2021/12/08 00:14:14;;;;;;;305.63;166.18;;;-0.20;45.00;;;;;;5057178;28;20063;-81
2021/12/08 00:16:43;;;;;;;290.42;161.27;;;-0.20;1.00;;;;;;5054929;28;20041;-81
2021/12/08 00:19:11;;;;;;;276.65;156.15;;;-0.20;1.00;;;;;;5055513;28;20057;-79
2021/12/08 00:21:38;;;;;;;322.00;176.65;;;-0.10;1.00;;;;;;5056635;28;20119;-80
2021/12/08 00:24:07;;;;;;;308.50;167.52;;;-0.10;1.00;;;;;;5056043;28;20128;-80
2021/12/08 00:26:36;;;;;;;287.30;152.25;;;0.00;1.00;;;;;;5039230;28;20147;-79
2021/12/08 00:29:04;;;;;;;278.05;150.88;;;0.00;99.90;;;;;;5056499;28;20053;-80
2021/12/08 00:31:33;;;;;;;273.73;147.35;;;-0.10;99.90;;;;;;5056477;28;20579;-81
2021/12/08 00:34:02;;;;;;;190.63;106.30;;;-0.20;99.90;;;;;;5039390;28;20512;-80
2021/12/08 00:36:40;;;;;;;170.57;93.60;;;-0.20;99.90;;;;;;5057557;28;20029;-80
2021/12/08 00:39:08;;;;;;;196.55;105.30;;;-0.20;99.90;;;;;;5041176;28;20057;-80
2021/12/08 00:41:35;;;;;;;224.95;120.72;;;-0.30;99.90;;;;;;5038097;28;20053;-82
2021/12/08 00:44:03;;;;;;;203.45;109.03;;;-0.40;99.90;;;;;;5055438;28;20132;-80
2021/12/08 00:46:30;;;;;;;194.52;111.00;;;-0.40;99.90;;;;;;5055672;28;20041;-79
2021/12/08 00:48:58;;;;;;;193.73;107.35;;;-0.50;99.90;;;;;;5056179;28;20119;-80
2021/12/08 00:51:27;;;;;;;224.98;124.20;;;-0.50;99.90;;;;;;5054106;28;20129;-80
2021/12/08 00:53:55;;;;;;;229.40;126.07;;;-0.60;99.90;;;;;;5055377;28;20043;-81
2021/12/08 00:56:22;;;;;;;232.73;127.10;;;-0.70;99.90;;;;;;5040741;28;20041;-82
2021/12/08 00:58:50;;;;;;;248.38;129.52;;;-0.70;1.00;;;;;;5062592;28;20049;-82
2021/12/08 01:01:18;;;;;;;232.23;125.43;;;-0.80;1.00;;;;;;5061127;28;20123;-80
2021/12/08 01:03:47;;;;;;;222.30;117.97;;;-0.80;1.00;;;;;;5061327;28;20128;-81
2021/12/08 01:06:14;;;;;;;202.95;110.25;;;-0.90;1.00;;;;;;5058929;28;20063;-81
2021/12/08 01:08:44;;;;;;;216.45;118.70;;;-0.90;1.00;;;;;;5059200;28;20064;-80
2021/12/08 01:11:16;;;;;;;215.05;118.05;;;-0.90;1.00;;;;;;5055210;28;20505;-80
2021/12/08 01:13:44;;;;;;;199.95;107.07;;;-0.90;1.00;;;;;;5055014;28;20095;-80
2021/12/08 01:16:12;;;;;;;173.02;98.38;;;-0.80;1.00;;;;;;5054640;28;20076;-79
2021/12/08 01:18:39;;;;;;;192.75;103.97;;;-0.90;1.00;;;;;;5055584;28;20527;-80
2021/12/08 01:21:09;;;;;;;179.75;103.07;;;-0.90;1.00;;;;;;5054498;28;20076;-81
2021/12/08 01:23:38;;;;;;;204.45;112.60;;;-0.90;1.00;;;;;;5055506;28;20087;-80
2021/12/08 01:26:08;;;;;;;166.93;90.05;;;-1.00;1.00;;;;;;5055238;28;20044;-80
2021/12/08 01:28:36;;;;;;;185.02;105.15;;;-1.10;1.00;;;;;;5037675;28;20055;-80
2021/12/08 01:31:05;;;;;;;194.10;106.13;;;-1.10;1.00;;;;;;5055543;28;20520;-81
2021/12/08 01:33:35;;;;;;;194.98;106.63;;;-1.10;1.00;;;;;;5075264;28;20021;-80
2021/12/08 01:36:04;;;;;;;170.75;95.07;;;-1.10;1.00;;;;;;5055882;28;20060;-81
2021/12/08 01:38:33;;;;;;;170.07;94.68;;;-1.10;1.00;;;;;;5054495;28;20047;-80
2021/12/08 01:41:01;;;;;;;170.30;95.65;;;-1.10;1.00;;;;;;5055458;28;20051;-80
2021/12/08 01:43:41;;;;;;;168.13;94.38;;;-1.20;1.00;;;;;;5055287;28;20500;-81
2021/12/08 01:46:09;;;;;;;173.98;94.00;;;-1.20;1.00;;;;;;5057235;28;20527;-80
2021/12/08 01:48:39;;;;;;;156.20;86.47;;;-1.20;1.00;;;;;;5070683;28;20048;-78
2021/12/08 01:51:10;;;;;;;154.32;83.30;;;-1.20;1.00;;;;;;5074178;28;20037;-80
2021/12/08 01:53:38;;;;;;;143.48;82.38;;;-1.10;1.00;;;;;;5043643;28;20072;-81
2021/12/08 01:56:07;;;;;;;158.85;86.97;;;-1.20;1.00;;;;;;5037336;28;20063;-79
2021/12/08 01:58:36;;;;;;;151.23;86.85;;;-1.20;1.00;;;;;;5038232;28;20045;-79
2021/12/08 02:01:07;;;;;;;164.13;93.35;;;-1.20;1.00;;;;;;5037439;28;20041;-80
2021/12/08 02:03:35;;;;;;;153.88;88.50;;;-1.30;99.90;;;;;;5056435;28;20065;-82
2021/12/08 02:06:06;;;;;;;164.70;93.55;;;-1.30;1.00;;;;;;5076207;28;20093;-80
2021/12/08 02:08:34;;;;;;;172.50;93.88;;;-1.20;1.00;;;;;;5064144;28;20041;-83
2021/12/08 02:11:03;;;;;;;170.48;96.38;;;-1.20;1.00;;;;;;5038126;28;20057;-82
2021/12/08 02:13:36;;;;;;;171.32;99.63;;;-1.20;1.00;;;;;;5056134;28;20044;-79
2021/12/08 02:16:08;;;;;;;137.18;79.68;;;-1.30;99.90;;;;;;5057129;28;20047;-79
2021/12/08 02:18:36;;;;;;;131.35;74.78;;;-1.30;99.90;;;;;;5058373;28;20060;-80
2021/12/08 02:21:19;;;;;;;115.68;65.72;;;-1.30;99.90;;;;;;5042360;28;20049;-79
2021/12/08 02:23:48;;;;;;;122.40;71.63;;;-1.30;99.90;;;;;;5058955;28;20065;-81
2021/12/08 02:26:15;;;;;;;134.43;73.65;;;-1.40;99.90;;;;;;5058898;28;20049;-81
2021/12/08 02:28:43;;;;;;;129.38;74.15;;;-1.50;99.90;;;;;;5062187;28;20139;-83
2021/12/08 02:31:14;;;;;;;132.05;77.82;;;-1.60;99.90;;;;;;5041443;28;20040;-80
2021/12/08 02:47:42;;;;;;;135.70;74.60;;;-1.60;1.00;;;;;;5057591;28;20053;-81
2021/12/08 02:50:10;;;;;;;137.63;78.93;;;-1.60;1.00;;;;;;5058976;28;20040;-81
2021/12/08 02:52:39;;;;;;;145.23;81.85;;;-1.60;1.00;;;;;;5058435;28;20045;-81
2021/12/08 02:55:09;;;;;;;152.80;88.30;;;-1.60;99.90;;;;;;5043587;28;20049;-80
2021/12/08 02:57:36;;;;;;;131.32;78.13;;;-1.70;99.90;;;;;;5061106;28;20493;-80
2021/12/08 03:00:08;;;;;;;155.07;86.05;;;-1.90;99.90;;;;;;5063092;28;20041;-80
2021/12/08 03:02:35;;;;;;;141.50;82.38;;;-2.00;99.90;;;;;;5066495;28;20049;-80
2021/12/08 03:05:04;;;;;;;134.30;78.35;;;-2.10;1.00;;;;;;5065608;28;20049;-81
2021/12/08 03:07:31;;;;;;;132.15;75.30;;;-2.10;1.00;;;;;;5060325;28;20052;-80
2021/12/08 03:10:08;;;;;;;120.88;70.50;;;-2.10;1.00;;;;;;5058573;28;20049;-80
2021/12/08 03:12:36;;;;;;;127.80;68.93;;;-2.10;1.00;;;;;;5057392;28;20051;-81
2021/12/08 03:15:05;;;;;;;118.53;67.45;;;-2.10;1.00;;;;;;5057478;28;20471;-80
2021/12/08 03:17:33;;;;;;;116.50;65.57;;;-2.00;1.00;;;;;;5056607;28;20056;-81
2021/12/08 03:20:00;;;;;;;130.00;72.40;;;-1.90;1.00;;;;;;5056403;28;20040;-81
2021/12/08 03:22:30;;;;;;;124.13;72.00;;;-2.00;99.90;;;;;;5036687;28;20050;-80
2021/12/08 03:25:00;;;;;;;120.05;73.57;;;-2.00;99.90;;;;;;5037301;28;20464;-83
2021/12/08 03:27:35;;;;;;;123.38;70.30;;;-2.00;1.00;;;;;;5040934;28;20056;-82
2021/12/08 03:30:13;;;;;;;134.77;74.65;;;-2.00;99.90;;;;;;5070841;28;20098;-81
2021/12/08 03:32:41;;;;;;;130.43;75.25;;;-1.90;99.90;;;;;;5067884;28;20096;-80
2021/12/08 03:35:12;;;;;;;132.68;76.78;;;-1.90;99.90;;;;;;5066074;28;20041;-83
2021/12/08 03:37:43;;;;;;;136.48;78.63;;;-1.90;99.90;;;;;;5065652;28;20097;-82
2021/12/08 03:40:14;;;;;;;132.50;74.55;;;-2.00;99.90;;;;;;5042576;28;20045;-81
2021/12/08 03:42:44;;;;;;;139.90;80.10;;;-2.00;99.90;;;;;;5060185;28;20051;-82
2021/12/08 03:45:15;;;;;;;139.27;77.45;;;-1.90;76.40;;;;;;5059432;28;20052;-82
2021/12/08 03:47:46;;;;;;;140.70;76.60;;;-1.90;9.00;;;;;;5063055;28;20028;-81
2021/12/08 03:50:17;;;;;;;145.48;81.32;;;-1.90;1.00;;;;;;5059893;28;20037;-80
2021/12/08 03:52:45;;;;;;;131.35;73.13;;;-2.00;1.00;;;;;;5057636;28;20072;-79
2021/12/08 03:55:15;;;;;;;126.43;69.35;;;-2.00;1.00;;;;;;5049708;28;20459;-80
2021/12/08 03:57:44;;;;;;;115.38;62.97;;;-2.00;1.00;;;;;;5068866;28;20116;-82
2021/12/08 04:00:16;;;;;;;111.35;62.05;;;-2.00;1.00;;;;;;5074922;28;20123;-80
2021/12/08 04:02:44;;;;;;;113.68;65.40;;;-2.00;1.00;;;;;;5062850;28;20079;-81
2021/12/08 04:05:18;;;;;;;122.43;67.53;;;-2.00;1.00;;;;;;5070870;28;20041;-81
2021/12/08 04:07:46;;;;;;;121.97;66.50;;;-2.10;1.00;;;;;;5070370;28;20041;-81
2021/12/08 04:10:18;;;;;;;112.43;61.95;;;-2.10;1.00;;;;;;5075133;28;20044;-82
2021/12/08 04:12:50;;;;;;;112.32;64.00;;;-2.10;1.00;;;;;;5072522;28;20041;-82
2021/12/08 04:15:19;;;;;;;112.15;61.58;;;-2.10;1.00;;;;;;5058807;28;20045;-80
2021/12/08 04:17:50;;;;;;;111.18;63.58;;;-2.20;1.00;;;;;;5077059;28;20140;-82
2021/12/08 04:20:22;;;;;;;116.47;65.25;;;-2.30;1.00;;;;;;5076396;28;20101;-82
2021/12/08 04:22:54;;;;;;;124.32;71.30;;;-2.30;1.00;;;;;;5076200;28;20446;-80
2021/12/08 04:25:24;;;;;;;109.55;62.60;;;-2.30;1.00;;;;;;5076443;28;20036;-81
2021/12/08 04:27:55;;;;;;;104.20;59.72;;;-2.30;1.00;;;;;;5076760;28;20372;-81
2021/12/08 04:30:29;;;;;;;106.70;60.20;;;-2.30;30.30;;;;;;5075009;28;20100;-81
2021/12/08 04:32:57;;;;;;;106.05;60.67;;;-2.30;99.90;;;;;;5075985;28;20082;-80
2021/12/08 04:35:25;;;;;;;105.57;60.40;;;-2.20;27.10;;;;;;5075743;28;20029;-81
2021/12/08 04:37:58;;;;;;;122.75;69.38;;;-2.20;1.00;;;;;;5075687;28;20068;-80
2021/12/08 04:40:34;;;;;;;123.63;68.32;;;-2.10;1.00;;;;;;5058431;28;20053;-80
2021/12/08 04:43:13;;;;;;;100.40;59.55;;;-2.10;1.00;;;;;;5076901;28;20033;-82
2021/12/08 04:45:50;;;;;;;111.40;64.28;;;-2.20;1.00;;;;;;5062313;28;20489;-79
2021/12/08 04:48:31;;;;;;;120.28;73.45;;;-2.30;1.00;;;;;;5056271;28;20041;-79
2021/12/08 04:51:23;;;;;;;115.50;68.65;;;-2.40;1.00;;;;;;5038288;28;20045;-79
2021/12/08 05:02:37;;;;;;;;;;;-2.40;1.00;;;;;;5057038;28;20075;-79
2021/12/08 05:05:18;;;;;;;142.55;79.10;;;-2.40;1.00;;;;;;5038691;28;20321;-80
2021/12/08 05:07:52;;;;;;;138.38;75.85;;;-2.50;1.00;;;;;;5036921;28;20033;-81
2021/12/08 05:10:25;;;;;;;149.70;81.15;;;-2.50;1.00;;;;;;5036356;28;20042;-80
2021/12/08 05:12:54;;;;;;;144.95;79.45;;;-2.60;1.00;;;;;;5038988;28;20056;-81
2021/12/08 05:15:27;;;;;;;139.30;77.70;;;-2.60;1.00;;;;;;5019979;28;20049;-79
2021/12/08 05:17:59;;;;;;;151.98;81.35;;;-2.70;1.00;;;;;;5040728;28;20491;-79
2021/12/08 05:20:32;;;;;;;150.05;85.68;;;-2.70;1.00;;;;;;5071284;28;20073;-79
2021/12/08 05:23:04;;;;;;;160.10;90.45;;;-2.80;1.00;;;;;;5056079;28;20044;-80
2021/12/08 05:25:34;;;;;;;147.02;83.10;;;-2.80;1.00;;;;;;5057128;28;20091;-79
2021/12/08 05:28:05;;;;;;;132.23;74.30;;;-2.80;1.00;;;;;;5056314;28;20420;-79
2021/12/08 05:30:39;;;;;;;141.07;77.38;;;-2.70;5.50;;;;;;5056323;28;20040;-80
2021/12/08 05:33:07;;;;;;;141.90;77.55;;;-2.60;1.00;;;;;;5063104;28;20041;-81
2021/12/08 05:35:36;;;;;;;147.27;83.90;;;-2.70;1.00;;;;;;5058607;28;20060;-79
2021/12/08 05:38:04;;;;;;;249.25;126.72;;;-2.70;1.00;;;;;;5055799;28;20041;-79
2021/12/08 05:40:34;;;;;;;248.07;129.48;;;-2.80;1.00;;;;;;5057262;28;20128;-80
2021/12/08 05:43:03;;;;;;;178.57;96.72;;;-2.90;1.00;;;;;;5057629;28;20049;-82
2021/12/08 05:45:31;;;;;;;259.60;138.50;;;-2.80;1.00;;;;;;5058112;28;20049;-81
2021/12/08 05:48:00;;;;;;;224.77;119.50;;;-2.80;1.00;;;;;;5056280;28;20112;-79
2021/12/08 05:50:31;;;;;;;209.00;109.13;;;-2.80;1.00;;;;;;5059340;28;20036;-79
2021/12/08 05:52:59;;;;;;;190.63;106.25;;;-2.80;1.00;;;;;;5060239;28;20488;-79
2021/12/08 05:55:27;;;;;;;198.02;106.45;;;-2.80;1.00;;;;;;5060788;28;20052;-81
2021/12/08 05:57:54;;;;;;;199.70;107.93;;;-2.80;1.00;;;;;;5068650;28;20041;-81
2021/12/08 06:00:26;;;;;;;244.55;124.40;;;-2.70;1.00;;;;;;5066132;28;20059;-80
2021/12/08 06:02:55;;;;;;;297.00;152.45;;;-2.80;1.00;;;;;;5060505;28;20045;-79
2021/12/08 06:05:25;;;;;;;261.80;132.38;;;-2.80;1.00;;;;;;5059204;28;20415;-79
2021/12/08 06:07:53;;;;;;;271.50;138.48;;;-2.80;1.00;;;;;;5043088;28;20140;-79
2021/12/08 06:10:24;;;;;;;232.43;118.90;;;-2.80;1.00;;;;;;5058565;28;20069;-81
2021/12/08 06:12:52;;;;;;;298.15;153.45;;;-2.80;1.00;;;;;;5060188;28;20392;-79
2021/12/08 06:15:20;;;;;;;306.90;166.25;;;-2.80;1.00;;;;;;5059511;28;20041;-79
2021/12/08 06:17:49;;;;;;;293.25;154.88;;;-2.90;1.00;;;;;;5059446;28;20477;-79
2021/12/08 06:20:18;;;;;;;272.55;140.70;;;-3.00;1.00;;;;;;5059710;28;20112;-80
2021/12/08 06:22:49;;;;;;;253.45;134.68;;;-2.90;1.00;;;;;;5047372;28;20045;-83
2021/12/08 06:25:20;;;;;;;276.75;142.40;;;-2.80;1.00;;;;;;5058739;28;20080;-81
2021/12/08 06:27:48;;;;;;;295.00;153.18;;;-2.80;1.00;;;;;;5058807;28;20064;-80
2021/12/08 06:30:21;;;;;;;271.08;146.25;;;-2.70;1.00;;;;;;5058831;28;20485;-80
2021/12/08 06:32:49;;;;;;;292.63;151.55;;;-2.70;1.00;;;;;;5060579;28;20056;-81
2021/12/08 06:35:21;;;;;;;263.70;141.02;;;-2.70;1.00;;;;;;5060033;28;20033;-80
2021/12/08 06:37:51;;;;;;;246.80;131.25;;;-2.60;1.00;;;;;;5077087;28;20385;-80
2021/12/08 06:40:22;;;;;;;225.35;121.60;;;-2.60;99.90;;;;;;5058664;28;20475;-79
2021/12/08 06:42:52;;;;;;;249.40;130.13;;;-2.60;99.90;;;;;;5061260;28;20057;-81
2021/12/08 06:45:22;;;;;;;255.52;133.02;;;-2.60;99.90;;;;;;5040743;28;20076;-80
2021/12/08 06:47:53;;;;;;;260.10;136.43;;;-2.60;99.90;;;;;;5039540;28;20037;-81
2021/12/08 06:50:25;;;;;;;229.55;126.07;;;-2.60;99.90;;;;;;5041731;28;20034;-79
2021/12/08 06:52:56;;;;;;;234.18;129.98;;;-2.60;99.90;;;;;;5038125;28;20121;-79
2021/12/08 06:55:29;;;;;;;253.95;136.23;;;-2.60;99.90;;;;;;5037597;28;20037;-81
2021/12/08 06:58:00;;;;;;;253.23;136.82;;;-2.50;99.90;;;;;;5056009;28;20030;-81
2021/12/08 07:00:47;;;;;;;307.13;164.13;;;-2.50;99.80;;;;;;5039334;28;20037;-76
2021/12/08 07:03:31;;;;;;;295.08;154.32;;;-2.40;64.40;;;;;;5039160;28;20049;-80
2021/12/08 07:06:07;;;;;;;292.05;154.98;;;-2.30;13.10;;;;;;5040697;28;20068;-82
2021/12/08 07:08:42;;;;;;;312.52;175.10;;;-2.30;1.00;;;;;;5041095;28;20045;-81
2021/12/08 07:11:10;;;;;;;344.90;188.60;;;-2.20;1.00;;;;;;5030360;28;20057;-81
2021/12/08 07:13:38;;;;;;;371.20;208.38;;;-2.20;1.00;;;;;;5021091;28;20105;-81
2021/12/08 07:16:09;;;;;;;394.92;214.65;;;-2.10;1.00;;;;;;5019635;28;20042;-81
2021/12/08 07:18:43;;;;;;;323.83;178.60;;;-2.10;1.00;;;;;;5018786;28;20042;-82
2021/12/08 07:21:13;;;;;;;340.58;191.00;;;-2.00;1.00;;;;;;5019219;28;20038;-80
2021/12/08 07:23:45;;;;;;;300.63;166.30;;;-1.90;1.00;;;;;;5034077;28;20080;-80
2021/12/08 07:26:15;;;;;;;274.63;149.50;;;-1.90;1.00;;;;;;5040950;28;20037;-81
2021/12/08 07:28:43;;;;;;;272.23;151.88;;;-1.80;1.00;;;;;;5040059;28;20039;-80
2021/12/08 07:31:14;;;;;;;292.65;156.45;;;-1.70;1.00;;;;;;5040294;28;20050;-80
2021/12/08 07:33:43;;;;;;;235.85;131.48;;;-1.60;1.00;;;;;;5040150;28;20503;-81
2021/12/08 07:36:16;;;;;;;241.98;135.63;;;-1.50;1.00;;;;;;5038850;28;20516;-81
2021/12/08 07:38:48;;;;;;;254.52;139.15;;;-1.50;1.00;;;;;;5038734;28;20041;-79
2021/12/08 07:41:19;;;;;;;243.85;140.40;;;-1.30;1.00;;;;;;5037803;28;20038;-79
2021/12/08 07:43:50;;;;;;;242.23;132.98;;;-1.10;99.90;;;;;;5043738;28;20425;-81
2021/12/08 07:46:20;;;;;;;245.63;138.48;;;-0.90;99.90;;;;;;5056728;28;20317;-75
2021/12/08 07:48:53;;;;;;;248.10;139.85;;;-0.80;99.90;;;;;;5058332;28;20115;-80
2021/12/08 07:51:27;;;;;;;245.98;136.43;;;-0.70;99.90;;;;;;5060428;28;20040;-82
2021/12/08 07:53:58;;;;;;;280.92;158.20;;;-0.60;94.90;;;;;;5038816;28;20037;-84
2021/12/08 07:56:27;;;;;;;271.70;145.45;;;-0.50;19.00;;;;;;5052136;28;20069;-81
2021/12/08 07:58:57;;;;;;;240.95;138.18;;;-0.40;1.00;;;;;;5055818;28;20049;-80
2021/12/08 08:01:27;;;;;;;266.85;150.45;;;-0.40;1.00;;;;;;5044547;28;20053;-81
2021/12/08 08:03:55;;;;;;;273.33;151.93;;;-0.30;1.00;;;;;;5075806;28;20076;-78
2021/12/08 08:06:29;;;;;;;268.90;153.82;;;-0.20;1.00;;;;;;5075044;28;20064;-81
2021/12/08 08:08:58;;;;;;;264.50;151.48;;;-0.10;1.00;;;;;;5058853;28;20040;-81
2021/12/08 08:11:28;;;;;;;278.23;155.90;;;-0.10;1.00;;;;;;5059663;28;20523;-81
2021/12/08 08:13:57;;;;;;;254.00;145.07;;;-0.10;1.00;;;;;;5060364;28;20411;-82
2021/12/08 08:16:28;;;;;;;244.57;139.93;;;-0.10;1.00;;;;;;5057306;28;20045;-81
2021/12/08 08:19:06;;;;;;;253.25;143.23;;;-0.10;1.00;;;;;;5038199;28;20504;-80
2021/12/08 08:21:38;;;;;;;246.18;140.20;;;0.00;4.90;;;;;;5041031;28;20072;-82
2021/12/08 08:24:08;;;;;;;278.35;157.02;;;0.10;94.40;;;;;;5056044;28;20037;-83
2021/12/08 08:26:37;;;;;;;280.15;162.00;;;0.20;97.30;;;;;;5022351;28;20505;-83
2021/12/08 08:29:06;;;;;;;276.67;155.43;;;0.30;97.90;;;;;;5061854;28;20071;-80
2021/12/08 08:31:40;;;;;;;255.18;145.27;;;0.40;99.90;;;;;;5078415;28;20049;-79
2021/12/08 08:34:08;;;;;;;245.95;145.05;;;0.40;61.80;;;;;;5067444;28;20041;-80
2021/12/08 08:36:38;;;;;;;255.60;152.68;;;0.50;99.90;;;;;;5048887;28;20133;-80
2021/12/08 08:39:11;;;;;;;291.13;170.02;;;0.60;99.90;;;;;;5064470;28;20083;-82
2021/12/08 08:41:44;;;;;;;293.30;172.90;;;0.80;92.90;;;;;;5045790;28;20497;-82
2021/12/08 08:44:24;;;;;;;285.17;170.88;;;0.80;11.00;;;;;;5044943;28;20067;-83
2021/12/08 08:46:52;;;;;;;286.25;168.20;;;0.80;59.20;;;;;;5041678;28;20057;-83
2021/12/08 08:49:24;;;;;;;277.52;165.32;;;0.90;75.60;;;;;;5042086;28;20069;-82
2021/12/08 08:52:00;;;;;;;282.05;166.55;;;0.90;37.10;;;;;;5041258;28;20051;-82
2021/12/08 08:54:33;;;;;;;279.20;157.88;;;1.00;4.80;;;;;;5042181;28;20045;-81
2021/12/08 08:57:08;;;;;;;271.95;160.00;;;1.10;26.80;;;;;;5041280;28;20046;-82
2021/12/08 08:59:42;;;;;;;270.88;161.70;;;1.30;1.00;;;;;;5041542;28;20053;-81
2021/12/08 09:02:12;;;;;;;275.10;162.85;;;1.40;1.00;;;;;;5043579;28;20045;-83
2021/12/08 09:04:42;;;;;;;269.13;159.23;;;1.50;1.00;;;;;;5061990;28;20048;-81
2021/12/08 09:07:14;;;;;;;249.07;145.00;;;1.60;1.00;;;;;;5063979;28;20041;-81
2021/12/08 09:09:47;;;;;;;234.77;137.27;;;1.70;1.00;;;;;;5062745;28;20045;-82
2021/12/08 09:12:20;;;;;;;268.63;158.93;;;1.80;1.00;;;;;;5063073;28;20148;-82
2021/12/08 09:14:52;;;;;;;250.98;150.35;;;2.00;1.00;;;;;;5048046;28;20051;-80
2021/12/08 09:17:23;;;;;;;258.60;150.63;;;2.10;1.00;;;;;;5063487;28;20099;-80
2021/12/08 09:19:58;;;;;;;225.60;130.80;;;2.20;1.00;;;;;;5062187;28;20041;-83
2021/12/08 09:22:30;;;;;;;235.75;141.50;;;2.30;1.00;;;;;;5043188;28;20135;-81
2021/12/08 09:25:08;;;;;;;234.35;142.10;;;2.50;1.00;;;;;;5042966;28;20053;-81
2021/12/08 09:27:40;;;;;;;240.63;145.40;;;2.60;1.00;;;;;;5062359;28;20068;-82
2021/12/08 09:30:11;;;;;;;248.90;148.38;;;2.70;1.00;;;;;;5062430;28;20061;-82
2021/12/08 09:32:43;;;;;;;250.02;148.25;;;2.90;1.00;;;;;;5062398;28;20056;-82
2021/12/08 09:35:14;;;;;;;255.45;151.23;;;3.00;1.00;;;;;;5045223;28;20109;-82
2021/12/08 09:37:46;;;;;;;250.43;148.50;;;3.20;1.00;;;;;;5078223;28;20037;-82
2021/12/08 09:40:22;;;;;;;144.93;84.55;;;3.30;1.00;;;;;;5060605;28;20040;-82
2021/12/08 09:42:51;;;;;;;;;;;3.30;99.90;;;;;;5037123;28;20394;-82
2021/12/08 09:45:22;;;;;;;136.63;71.78;;;3.40;99.90;;;;;;5049275;28;19921;-83
2021/12/08 09:47:50;;;;;;;114.68;64.13;;;3.50;99.90;;;;;;5060084;28;20041;-82
2021/12/08 09:50:17;;;;;;;124.38;71.57;;;3.70;99.90;;;;;;5077860;28;20041;-81
2021/12/08 09:52:48;;;;;;;116.32;66.00;;;3.90;39.90;;;;;;5056273;28;20053;-81
2021/12/08 09:55:18;;;;;;;79.30;48.40;;;4.00;1.00;;;;;;5068853;28;20151;-82
2021/12/08 09:57:48;;;;;;;95.07;55.92;;;4.00;1.00;;;;;;5071565;28;20064;-82
2021/12/08 10:00:21;;;;;;;71.30;44.90;;;4.00;1.00;;;;;;5052672;28;20060;-83
2021/12/08 10:02:49;;;;;;;59.45;38.35;;;4.10;1.00;;;;;;5060116;28;20100;-81
2021/12/08 10:05:18;;;;;;;53.92;34.63;;;4.20;1.00;;;;;;5051352;28;20041;-84
2021/12/08 10:07:46;;;;;;;56.20;33.33;;;4.30;1.00;;;;;;5059357;28;20101;-82
2021/12/08 10:10:17;;;;;;;49.88;33.33;;;4.30;1.00;;;;;;5042295;28;20053;-83
2021/12/08 10:12:45;;;;;;;68.18;37.80;;;4.40;1.00;;;;;;5041681;28;20123;-82
2021/12/08 10:15:15;;;;;;;57.08;35.88;;;4.50;1.00;;;;;;5059802;28;20056;-82
2021/12/08 10:17:43;;;;;;;51.83;32.60;;;4.50;1.00;;;;;;5059946;28;20041;-82
2021/12/08 10:20:14;;;;;;;53.72;34.38;;;4.50;1.00;;;;;;5042170;28;20041;-81
2021/12/08 10:22:43;;;;;;;46.88;28.17;;;4.60;1.00;;;;;;5059917;28;20082;-82
2021/12/08 10:25:14;;;;;;;34.58;22.67;;;4.60;1.00;;;;;;5060127;28;20043;-81
2021/12/08 10:28:06;;;;;;;41.47;28.08;;;4.70;1.00;;;;;;5041141;28;20560;-81
2021/12/08 10:30:38;;;;;;;42.28;27.48;;;4.80;1.00;;;;;;5039362;28;20038;-85
2021/12/08 10:33:12;;;;;;;42.30;27.70;;;4.90;1.00;;;;;;5048781;28;20090;-84
2021/12/08 10:35:48;;;;;;;39.33;25.10;;;4.90;1.00;;;;;;5046020;28;20111;-83
2021/12/08 10:38:19;;;;;;;39.00;23.63;;;4.90;1.00;;;;;;5058641;28;20128;-83
2021/12/08 10:41:04;;;;;;;42.13;24.35;;;4.90;1.00;;;;;;5060294;28;20044;-82
2021/12/08 10:43:33;;;;;;;28.98;19.42;;;5.00;1.00;;;;;;5040618;28;20050;-83
2021/12/08 10:46:10;;;;;;;34.45;21.90;;;5.00;1.00;;;;;;5022357;28;20052;-84
2021/12/08 10:48:43;;;;;;;33.30;23.05;;;4.90;1.00;;;;;;5057068;28;20182;-83
2021/12/08 10:54:25;;;;;;;26.83;16.55;;;5.10;1.00;;;;;;5063418;28;20043;-87
2021/12/08 10:56:57;;;;;;;26.83;16.20;;;5.20;1.00;;;;;;5064463;28;20060;-83
2021/12/08 10:59:27;;;;;;;27.13;16.70;;;5.20;1.00;;;;;;5059740;28;20037;-83
2021/12/08 11:01:59;;;;;;;24.15;14.55;;;5.20;1.00;;;;;;5041464;28;20044;-83
2021/12/08 11:04:33;;;;;;;22.27;13.82;;;5.40;1.00;;;;;;5059796;28;20045;-84
2021/12/08 11:07:05;;;;;;;17.83;12.23;;;5.40;1.00;;;;;;5041636;28;20065;-82
2021/12/08 11:09:41;;;;;;;40.40;22.42;;;5.50;1.00;;;;;;5046137;28;20052;-82
2021/12/08 11:12:09;;;;;;;14.38;10.30;;;5.50;1.00;;;;;;5050319;28;20101;-85
2021/12/08 11:14:51;;;;;;;13.55;9.52;;;5.50;1.00;;;;;;5066619;28;20053;-79
2021/12/08 11:17:26;;;;;;;20.88;12.32;;;5.50;99.90;;;;;;5043759;28;20397;-83
2021/12/08 11:20:18;;;;;;;23.40;14.13;;;5.40;99.90;;;;;;5059640;28;20037;-84
2021/12/08 11:23:03;;;;;;;21.23;12.93;;;5.40;1.00;;;;;;5042752;28;20049;-84
2021/12/08 11:25:39;;;;;;;22.38;14.43;;;5.50;99.90;;;;;;5061321;28;20410;-85
2021/12/08 11:28:22;;;;;;;23.67;13.00;;;5.50;99.90;;;;;;5046962;28;20049;-82
2021/12/08 11:30:52;;;;;;;23.63;14.43;;;5.60;1.00;;;;;;5062268;28;20047;-86
2021/12/08 11:33:24;;;;;;;23.98;13.57;;;5.60;99.90;;;;;;5045064;28;20481;-83
2021/12/08 11:36:09;;;;;;;22.15;14.48;;;5.60;99.90;;;;;;5061275;28;20382;-82
2021/12/08 11:38:37;;;;;;;32.78;17.58;;;5.60;99.90;;;;;;5041508;28;20425;-82
2021/12/08 11:41:11;;;;;;;34.70;19.90;;;5.60;99.90;;;;;;5059016;28;20048;-83
2021/12/08 11:43:39;;;;;;;25.52;16.67;;;5.70;99.90;;;;;;5042101;28;20064;-86
2021/12/08 11:46:19;;;;;;;28.25;18.92;;;5.70;99.90;;;;;;5045559;28;20085;-85
2021/12/08 11:48:57;;;;;;;25.92;15.57;;;5.70;99.90;;;;;;5052317;28;20110;-85
2021/12/08 11:51:25;;;;;;;23.38;15.13;;;5.60;99.90;;;;;;5043304;28;20041;-82
2021/12/08 11:53:52;;;;;;;29.35;16.40;;;5.70;99.90;;;;;;5042491;28;20045;-83
2021/12/08 11:56:35;;;;;;;28.25;17.10;;;5.80;99.90;;;;;;5040599;28;20574;-83
2021/12/08 11:59:05;;;;;;;31.23;14.43;;;5.90;99.90;;;;;;5058772;28;20045;-82
2021/12/08 12:01:34;;;;;;;21.80;14.13;;;5.80;99.90;;;;;;5041534;28;20057;-82
2021/12/08 12:04:01;;;;;;;27.90;14.73;;;5.90;99.90;;;;;;5059200;28;20056;-82
2021/12/08 12:06:29;;;;;;;23.38;14.57;;;5.90;99.90;;;;;;5040529;28;20055;-82
2021/12/08 12:08:58;;;;;;;20.10;13.82;;;5.90;99.90;;;;;;5059808;28;20045;-83
2021/12/08 12:11:47;;;;;;;17.92;11.75;;;6.00;99.90;;;;;;5047884;28;20100;-82
2021/12/08 12:14:30;;;;;;;18.25;10.93;;;6.00;99.90;;;;;;5064114;28;20401;-84
2021/12/08 12:17:00;;;;;;;19.77;11.80;;;6.10;99.90;;;;;;5040682;28;20053;-84
2021/12/08 12:19:34;;;;;;;20.80;12.00;;;6.20;99.90;;;;;;5041513;28;20048;-87
2021/12/08 12:22:11;;;;;;;23.88;12.35;;;6.10;99.90;;;;;;5060675;28;20112;-82
2021/12/08 12:24:54;;;;;;;20.70;11.98;;;6.10;99.90;;;;;;5059892;28;20096;-82
2021/12/08 12:27:38;;;;;;;23.88;13.23;;;6.20;99.90;;;;;;5039683;28;20048;-80
2021/12/08 12:30:12;;;;;;;20.85;13.07;;;6.10;99.90;;;;;;5059566;28;20523;-83
2021/12/08 12:32:50;;;;;;;20.98;13.50;;;6.10;99.90;;;;;;5059482;28;20044;-84
2021/12/08 12:35:20;;;;;;;22.30;14.25;;;6.10;99.90;;;;;;5060170;28;20412;-85
2021/12/08 12:38:03;;;;;;;20.00;12.77;;;6.10;99.90;;;;;;5042711;28;20084;-85
2021/12/08 12:40:38;;;;;;;20.80;12.23;;;6.20;99.90;;;;;;5041601;28;20045;-85
2021/12/08 12:43:06;;;;;;;19.25;11.85;;;6.20;99.90;;;;;;5060716;28;20045;-86
2021/12/08 12:45:39;;;;;;;22.77;13.68;;;6.20;99.90;;;;;;5039600;28;20136;-84
2021/12/08 12:48:17;;;;;;;24.15;15.10;;;6.30;99.90;;;;;;5041089;28;20051;-83
2021/12/08 12:51:03;;;;;;;18.85;11.35;;;6.30;99.90;;;;;;5058613;28;20051;-83
2021/12/08 12:53:32;;;;;;;;;;;6.20;99.90;;;;;;5058177;28;20110;-85
2021/12/08 12:55:59;;;;;;;15.73;9.93;;;6.10;99.90;;;;;;5038592;28;19927;-85
2021/12/08 12:58:42;;;;;;;16.65;9.70;;;6.10;99.90;;;;;;5039805;28;20041;-83
2021/12/08 13:01:11;;;;;;;17.85;10.23;;;6.10;99.90;;;;;;5039866;28;20040;-82
2021/12/08 13:03:50;;;;;;;36.92;12.18;;;6.10;99.90;;;;;;5058206;28;20052;-83
2021/12/08 13:06:33;;;;;;;17.25;10.93;;;6.10;99.90;;;;;;5041013;28;20084;-84
2021/12/08 13:09:02;;;;;;;22.20;13.07;;;6.20;99.90;;;;;;5057034;28;20061;-85
2021/12/08 13:11:46;;;;;;;20.98;12.95;;;6.20;99.90;;;;;;5041113;28;20099;-84
2021/12/08 13:14:26;;;;;;;24.33;13.88;;;6.10;99.90;;;;;;5059066;28;20116;-83
2021/12/08 13:17:23;;;;;;;20.10;10.50;;;6.20;99.90;;;;;;5058203;28;20045;-84